Time;durP1;ratioP1;P1;durP2;ratioP2;P2;SDS_P1;SDS_P2;PMS_P1;PMS_P2;Temp;Humidity;BMP_temperature;BMP_pressure;BME280_temperature;BME280_humidity;BME280_pressure;Samples;Min_cycle;Max_cycle;Signal;HPM_P1;HPM_P2
2021/04/03 00:00:40;;;;;;;5.60;3.97;;;4.60;90.40;;;;;;6321038;22;20004;-95
2021/04/03 00:03:08;;;;;;;4.50;3.35;;;4.60;90.40;;;;;;6320635;22;20026;-94
2021/04/03 00:05:34;;;;;;;5.05;3.63;;;4.60;90.30;;;;;;6316526;22;19999;-95
2021/04/03 00:07:59;;;;;;;4.25;3.67;;;4.50;90.30;;;;;;6316432;22;19999;-95
2021/04/03 00:10:50;;;;;;;6.45;4.20;;;4.60;90.20;;;;;;6319213;22;20014;-95
2021/04/03 00:13:17;;;;;;;5.20;3.55;;;4.60;90.20;;;;;;6325869;22;19999;-94
2021/04/03 00:15:44;;;;;;;5.38;4.13;;;4.60;90.10;;;;;;6324131;22;20037;-95
2021/04/03 00:18:12;;;;;;;4.32;3.40;;;4.50;90.10;;;;;;6316886;22;20026;-95
2021/04/03 00:20:38;;;;;;;4.88;3.83;;;4.50;90.10;;;;;;6315952;22;20006;-95
2021/04/03 00:23:04;;;;;;;4.47;3.65;;;4.50;90.20;;;;;;6315299;22;19999;-94
2021/04/03 00:25:32;;;;;;;6.60;4.60;;;4.50;90.20;;;;;;6341654;22;20007;-95
2021/04/03 00:27:58;;;;;;;5.20;3.97;;;4.50;90.20;;;;;;6313890;22;20023;-94
2021/04/03 00:30:24;;;;;;;5.20;4.00;;;4.50;90.20;;;;;;6317906;22;19999;-93
2021/04/03 00:32:52;;;;;;;5.13;3.90;;;4.50;90.20;;;;;;6320566;22;20083;-94
2021/04/03 00:35:24;;;;;;;5.70;4.63;;;4.40;90.20;;;;;;6317289;22;20009;-96
2021/04/03 00:37:51;;;;;;;4.75;3.67;;;4.50;90.30;;;;;;6321681;22;20063;-94
2021/04/03 00:40:27;;;;;;;5.72;4.53;;;4.50;90.30;;;;;;6321627;22;20010;-94
2021/04/03 00:42:55;;;;;;;6.68;3.85;;;4.40;90.30;;;;;;6320069;22;19991;-94
2021/04/03 00:45:22;;;;;;;5.35;3.92;;;4.40;90.30;;;;;;6320053;22;20007;-95
2021/04/03 00:47:48;;;;;;;6.38;4.18;;;4.40;90.40;;;;;;6318290;22;20029;-94
2021/04/03 00:50:18;;;;;;;6.07;4.85;;;4.40;90.40;;;;;;6318342;22;20080;-94
2021/04/03 00:52:45;;;;;;;5.03;4.15;;;4.40;90.40;;;;;;6318967;22;20025;-95
2021/04/03 00:55:12;;;;;;;4.43;3.65;;;4.40;90.40;;;;;;6344831;22;20013;-94
2021/04/03 00:57:38;;;;;;;4.95;3.95;;;4.40;90.40;;;;;;6317522;22;19995;-94
2021/04/03 01:00:06;;;;;;;7.07;4.50;;;4.40;90.50;;;;;;6317971;22;20021;-94
2021/04/03 01:02:32;;;;;;;6.25;4.38;;;4.40;90.40;;;;;;6315719;22;20021;-94
2021/04/03 01:04:58;;;;;;;5.05;3.70;;;4.40;90.50;;;;;;6342876;22;20304;-95
2021/04/03 01:07:24;;;;;;;5.53;3.88;;;4.40;90.40;;;;;;6318134;22;19995;-95
2021/04/03 01:09:50;;;;;;;5.80;3.88;;;4.40;90.40;;;;;;6317975;22;19999;-95
2021/04/03 01:12:31;;;;;;;7.30;4.05;;;4.40;90.30;;;;;;6341663;22;20386;-95
2021/04/03 01:15:08;;;;;;;5.65;4.57;;;4.40;90.30;;;;;;6317412;22;20015;-95
2021/04/03 01:17:56;;;;;;;5.05;3.95;;;4.40;90.30;;;;;;6319478;22;20009;-95
2021/04/03 01:20:27;;;;;;;4.78;3.65;;;4.40;90.20;;;;;;6319766;22;19999;-94
2021/04/03 01:23:14;;;;;;;5.70;3.50;;;4.40;90.20;;;;;;6318211;22;19998;-95
2021/04/03 01:26:23;;;;;;;5.75;4.00;;;4.40;90.20;;;;;;6319854;22;20076;-95
2021/04/03 01:29:34;;;;;;;5.35;3.85;;;4.40;90.20;;;;;;6319363;22;20006;-95
2021/04/03 01:32:04;;;;;;;5.25;3.97;;;4.40;90.20;;;;;;6318838;22;20011;-95
2021/04/03 01:34:33;;;;;;;5.80;3.88;;;4.50;90.20;;;;;;6318662;22;20033;-95
2021/04/03 01:37:05;;;;;;;5.18;3.95;;;4.40;90.20;;;;;;6324295;22;20000;-94
2021/04/03 01:39:35;;;;;;;6.03;3.58;;;4.50;90.20;;;;;;6323300;22;20045;-95
2021/04/03 01:42:05;;;;;;;4.65;3.85;;;4.50;90.30;;;;;;6321351;22;20025;-94
2021/04/03 01:44:35;;;;;;;6.65;4.15;;;4.50;90.30;;;;;;6321242;22;20010;-95
2021/04/03 01:47:03;;;;;;;6.15;4.03;;;4.50;90.20;;;;;;6319677;22;20022;-94
2021/04/03 01:49:31;;;;;;;5.38;3.85;;;4.50;90.20;;;;;;6317729;22;20007;-94
2021/04/03 01:52:00;;;;;;;5.57;3.83;;;4.60;90.30;;;;;;6318362;22;20000;-94
2021/04/03 01:54:27;;;;;;;5.50;3.80;;;4.70;90.40;;;;;;6320384;22;20019;-94
2021/04/03 01:56:56;;;;;;;5.65;3.97;;;4.70;90.40;;;;;;6322405;22;19996;-94
2021/04/03 01:59:22;;;;;;;7.60;4.03;;;4.70;90.30;;;;;;6320817;22;19995;-94
2021/04/03 02:01:51;;;;;;;5.32;4.07;;;4.70;90.10;;;;;;6325381;22;20003;-94
2021/04/03 02:04:18;;;;;;;4.72;3.78;;;4.80;90.30;;;;;;6326230;22;20038;-94
2021/04/03 02:06:48;;;;;;;5.75;4.20;;;4.80;90.30;;;;;;6319069;22;20071;-94
2021/04/03 02:09:15;;;;;;;5.85;4.10;;;4.80;90.30;;;;;;6319631;22;20006;-94
2021/04/03 02:11:47;;;;;;;5.45;3.95;;;4.90;90.20;;;;;;6317948;22;20042;-94
2021/04/03 02:14:15;;;;;;;6.53;3.80;;;4.90;90.20;;;;;;6328780;22;19998;-94
2021/04/03 02:16:42;;;;;;;6.72;4.53;;;4.90;89.90;;;;;;6335493;22;19995;-94
2021/04/03 02:19:10;;;;;;;6.82;4.53;;;4.90;89.70;;;;;;6331585;22;20020;-94
2021/04/03 02:21:38;;;;;;;5.38;3.88;;;4.90;89.80;;;;;;6321710;22;19996;-94
2021/04/03 02:24:05;;;;;;;5.25;3.90;;;4.90;89.90;;;;;;6317362;22;19999;-95
2021/04/03 02:26:36;;;;;;;6.55;4.03;;;4.90;89.80;;;;;;6316907;22;20078;-94
2021/04/03 02:29:06;;;;;;;5.60;3.75;;;4.90;89.80;;;;;;6314116;22;20070;-95
2021/04/03 02:31:34;;;;;;;4.55;3.95;;;4.80;90.00;;;;;;6316732;22;19999;-95
2021/04/03 02:34:00;;;;;;;6.28;4.00;;;4.80;89.80;;;;;;6315558;22;20007;-95
2021/04/03 02:36:26;;;;;;;7.32;4.72;;;4.80;89.60;;;;;;6317268;22;20050;-94
2021/04/03 02:38:53;;;;;;;5.75;4.13;;;4.80;89.50;;;;;;6319706;22;19998;-94
2021/04/03 02:41:47;;;;;;;5.40;3.90;;;4.80;89.60;;;;;;6319149;22;20002;-95
2021/04/03 02:44:53;;;;;;;7.57;3.88;;;4.70;89.70;;;;;;6313531;22;19999;-95
2021/04/03 02:47:23;;;;;;;6.78;4.20;;;4.70;89.80;;;;;;6319666;22;20014;-94
2021/04/03 02:49:58;;;;;;;5.70;4.30;;;4.70;90.00;;;;;;6316606;22;20004;-94
2021/04/03 02:52:26;;;;;;;6.30;4.30;;;4.70;89.80;;;;;;6315993;22;20070;-94
2021/04/03 02:54:53;;;;;;;6.70;4.78;;;4.70;89.60;;;;;;6316597;22;20004;-95
2021/04/03 02:57:20;;;;;;;7.55;4.53;;;4.70;89.60;;;;;;6317294;22;20061;-94
2021/04/03 02:59:57;;;;;;;7.65;4.80;;;4.70;89.80;;;;;;6319063;22;19996;-94
2021/04/03 03:02:24;;;;;;;8.05;4.13;;;4.70;89.70;;;;;;6318850;22;20006;-95
2021/04/03 03:04:52;;;;;;;5.85;3.88;;;4.70;90.00;;;;;;6320837;22;19995;-95
2021/04/03 03:07:19;;;;;;;7.15;4.68;;;4.80;90.10;;;;;;6320425;22;20088;-94
2021/04/03 03:09:47;;;;;;;5.68;4.32;;;4.80;90.10;;;;;;6322503;22;19999;-94
2021/04/03 03:12:16;;;;;;;6.78;3.92;;;4.80;90.00;;;;;;6324701;22;20004;-94
2021/04/03 03:14:43;;;;;;;3.97;3.15;;;4.80;90.10;;;;;;6322370;22;20011;-94
2021/04/03 03:17:10;;;;;;;5.90;4.28;;;4.90;90.10;;;;;;6322376;22;20003;-95
2021/04/03 03:19:37;;;;;;;5.22;4.13;;;4.90;90.00;;;;;;6321322;22;19996;-95
2021/04/03 03:22:04;;;;;;;6.63;4.15;;;5.00;89.90;;;;;;6323989;22;19995;-94
2021/04/03 03:24:31;;;;;;;4.60;3.50;;;5.00;89.50;;;;;;6319158;22;20003;-95
2021/04/03 03:26:58;;;;;;;5.05;4.18;;;5.00;89.30;;;;;;6312183;22;20006;-95
2021/04/03 03:29:26;;;;;;;5.90;4.00;;;5.00;89.20;;;;;;6314329;22;19995;-95
2021/04/03 03:31:52;;;;;;;5.65;3.60;;;4.90;88.90;;;;;;6314238;22;20185;-95
2021/04/03 03:34:18;;;;;;;5.78;3.88;;;4.90;88.80;;;;;;6314499;22;20138;-94
2021/04/03 03:36:45;;;;;;;8.32;4.95;;;4.80;88.70;;;;;;6316110;22;20023;-94
2021/04/03 03:39:11;;;;;;;8.18;6.15;;;4.70;88.70;;;;;;6321231;22;19999;-93
2021/04/03 03:41:37;;;;;;;9.25;6.60;;;4.70;88.80;;;;;;6328502;22;19995;-94
2021/04/03 03:44:05;;;;;;;9.68;7.10;;;4.60;89.00;;;;;;6326805;22;20047;-93
2021/04/03 03:46:32;;;;;;;8.90;7.13;;;4.50;89.20;;;;;;6315940;22;20082;-95
2021/04/03 03:48:57;;;;;;;8.77;6.68;;;4.50;89.40;;;;;;6318569;22;19995;-95
2021/04/03 03:51:24;;;;;;;7.75;5.30;;;4.40;89.60;;;;;;6320038;22;20000;-95
2021/04/03 03:53:49;;;;;;;8.35;7.10;;;4.40;89.80;;;;;;6343493;22;20330;-94
2021/04/03 03:56:16;;;;;;;8.82;6.40;;;4.40;89.90;;;;;;6318328;22;19995;-95
2021/04/03 03:58:43;;;;;;;8.38;6.82;;;4.40;90.00;;;;;;6318536;22;19999;-95
2021/04/03 04:01:12;;;;;;;12.02;7.50;;;4.40;90.00;;;;;;6321427;22;20009;-94
2021/04/03 04:03:38;;;;;;;10.40;7.53;;;4.40;90.30;;;;;;6346316;22;19995;-94
2021/04/03 04:06:07;;;;;;;10.23;6.88;;;4.40;90.10;;;;;;6344994;22;20026;-95
2021/04/03 04:08:33;;;;;;;10.10;7.63;;;4.40;90.10;;;;;;6319601;22;19992;-94
2021/04/03 04:10:59;;;;;;;12.18;7.18;;;4.50;90.20;;;;;;6345909;22;20014;-94
2021/04/03 04:13:25;;;;;;;9.02;6.82;;;4.50;90.20;;;;;;6320016;22;20076;-94
2021/04/03 04:15:54;;;;;;;8.25;6.22;;;4.50;90.20;;;;;;6345658;22;20007;-95
2021/04/03 04:18:20;;;;;;;9.02;6.40;;;4.50;90.20;;;;;;6349519;22;20003;-94
2021/04/03 04:20:46;;;;;;;7.70;6.00;;;4.60;90.20;;;;;;6350185;22;20002;-94
2021/04/03 04:23:12;;;;;;;9.23;6.82;;;4.60;90.20;;;;;;6349667;22;20004;-93
2021/04/03 04:25:37;;;;;;;8.82;5.93;;;4.70;90.20;;;;;;6349050;22;20010;-95
2021/04/03 04:28:04;;;;;;;8.65;5.80;;;4.80;90.20;;;;;;6353533;22;19995;-94
2021/04/03 04:30:30;;;;;;;8.50;6.78;;;4.90;90.20;;;;;;6353133;22;20034;-94
2021/04/03 04:32:55;;;;;;;10.70;7.50;;;4.90;90.20;;;;;;6346698;22;19992;-95
2021/04/03 04:35:22;;;;;;;11.82;8.43;;;5.00;90.20;;;;;;6348492;22;20102;-95
2021/04/03 04:37:48;;;;;;;11.60;8.45;;;5.10;90.20;;;;;;6345504;22;20030;-95
2021/04/03 04:40:15;;;;;;;10.55;8.27;;;5.10;90.20;;;;;;6316913;22;19995;-95
2021/04/03 04:42:42;;;;;;;13.00;7.95;;;5.20;90.20;;;;;;6320093;22;19996;-95
2021/04/03 04:45:12;;;;;;;12.52;8.68;;;5.20;90.20;;;;;;6318472;22;20496;-94
2021/04/03 04:47:41;;;;;;;12.68;8.73;;;5.30;90.20;;;;;;6324616;22;20033;-94
2021/04/03 04:50:14;;;;;;;12.80;8.55;;;5.40;90.20;;;;;;6323669;22;19995;-93
2021/04/03 04:52:41;;;;;;;14.52;10.85;;;5.50;90.20;;;;;;6327558;22;20003;-94
2021/04/03 04:55:07;;;;;;;17.45;10.75;;;5.60;90.20;;;;;;6330482;22;20042;-94
2021/04/03 04:57:33;;;;;;;16.80;10.50;;;5.60;90.10;;;;;;6328884;22;20021;-95
2021/04/03 04:59:59;;;;;;;14.77;9.88;;;5.70;90.10;;;;;;6329913;22;20003;-94
2021/04/03 05:02:25;;;;;;;14.20;10.75;;;5.80;90.00;;;;;;6355220;22;20015;-94
2021/04/03 05:04:54;;;;;;;14.85;10.35;;;5.90;90.10;;;;;;6327236;22;20006;-94
2021/04/03 05:07:20;;;;;;;15.77;11.00;;;6.00;90.00;;;;;;6321980;22;20451;-95
2021/04/03 05:09:46;;;;;;;17.80;10.90;;;6.10;89.60;;;;;;6322118;22;20078;-94
2021/04/03 05:12:12;;;;;;;15.70;11.48;;;6.20;89.30;;;;;;6320962;22;20038;-94
2021/04/03 05:14:38;;;;;;;15.63;11.98;;;6.20;88.80;;;;;;6326372;22;20084;-94
2021/04/03 05:17:04;;;;;;;16.95;11.40;;;6.30;88.50;;;;;;6328431;22;19992;-94
2021/04/03 05:19:33;;;;;;;17.50;12.30;;;6.30;88.70;;;;;;6325875;22;20010;-93
2021/04/03 05:21:59;;;;;;;18.45;13.05;;;6.40;88.90;;;;;;6326650;22;20014;-94
2021/04/03 05:24:24;;;;;;;15.80;11.60;;;6.40;88.50;;;;;;6328256;22;20003;-94
2021/04/03 05:26:50;;;;;;;17.35;11.90;;;6.50;88.30;;;;;;6329862;22;20480;-94
2021/04/03 05:29:16;;;;;;;13.85;9.93;;;6.50;88.10;;;;;;6329569;22;19999;-95
2021/04/03 05:31:45;;;;;;;15.40;10.70;;;6.60;88.40;;;;;;6351741;22;20007;-95
2021/04/03 05:34:11;;;;;;;17.67;12.25;;;6.70;88.40;;;;;;6322943;22;20541;-95
2021/04/03 05:36:37;;;;;;;13.75;11.23;;;6.70;86.90;;;;;;6325165;22;19999;-95
2021/04/03 05:39:03;;;;;;;13.13;9.77;;;6.80;86.90;;;;;;6324946;22;20011;-95
2021/04/03 05:41:29;;;;;;;16.83;11.82;;;6.80;86.50;;;;;;6325581;22;20068;-94
2021/04/03 05:43:58;;;;;;;14.95;11.10;;;6.90;86.60;;;;;;6326990;22;20414;-94
2021/04/03 05:46:25;;;;;;;14.23;10.57;;;6.90;85.90;;;;;;6324794;22;20037;-94
2021/04/03 05:48:51;;;;;;;13.35;9.88;;;7.00;84.80;;;;;;6327461;22;20006;-95
2021/04/03 05:51:19;;;;;;;15.60;10.50;;;6.90;83.70;;;;;;6325146;22;20021;-95
2021/04/03 05:53:45;;;;;;;13.85;9.88;;;6.90;83.70;;;;;;6321379;22;19999;-95
2021/04/03 05:56:13;;;;;;;13.10;10.40;;;6.90;84.80;;;;;;6320950;22;20070;-94
2021/04/03 05:58:40;;;;;;;15.48;10.68;;;7.00;86.00;;;;;;6328008;22;19995;-94
2021/04/03 06:01:06;;;;;;;15.77;10.80;;;7.10;84.80;;;;;;6323775;22;20003;-94
2021/04/03 06:03:35;;;;;;;11.98;9.18;;;7.10;82.90;;;;;;6319926;22;19996;-95
2021/04/03 06:06:01;;;;;;;15.57;10.45;;;7.00;83.60;;;;;;6325310;22;19999;-94
2021/04/03 06:08:29;;;;;;;12.52;9.30;;;7.00;83.50;;;;;;6321338;22;20025;-94
2021/04/03 06:11:16;;;;;;;14.65;10.20;;;7.10;82.10;;;;;;6320024;22;20003;-95
2021/04/03 06:14:02;;;;;;;14.30;9.77;;;7.00;81.30;;;;;;6320461;22;20007;-95
2021/04/03 06:16:31;;;;;;;13.95;9.30;;;6.90;81.50;;;;;;6313778;22;20011;-94
2021/04/03 06:19:16;;;;;;;12.32;8.57;;;6.90;82.60;;;;;;6315137;22;20003;-93
2021/04/03 06:21:55;;;;;;;12.43;9.32;;;7.00;80.90;;;;;;6316816;22;20003;-94
2021/04/03 06:24:23;;;;;;;15.35;10.77;;;7.00;81.30;;;;;;6313167;22;19999;-94
2021/04/03 06:27:09;;;;;;;14.15;9.20;;;7.10;81.60;;;;;;6316578;22;20173;-94
2021/04/03 06:29:47;;;;;;;14.15;10.00;;;7.10;80.10;;;;;;6324985;22;19996;-94
2021/04/03 06:32:29;;;;;;;10.77;8.52;;;7.10;80.40;;;;;;6327479;22;20041;-94
2021/04/03 06:34:57;;;;;;;12.85;9.07;;;7.10;79.90;;;;;;6322867;22;20012;-94
2021/04/03 06:37:30;;;;;;;10.35;7.55;;;7.10;79.20;;;;;;6327668;22;20007;-95
2021/04/03 06:40:03;;;;;;;10.23;6.80;;;7.20;77.70;;;;;;6325016;22;19995;-94
2021/04/03 06:42:41;;;;;;;9.80;6.78;;;7.20;77.70;;;;;;6326482;22;19999;-94
2021/04/03 06:45:26;;;;;;;9.00;6.35;;;7.20;76.30;;;;;;6323767;22;20004;-95
2021/04/03 06:48:00;;;;;;;7.47;5.50;;;7.30;78.30;;;;;;6320516;22;19999;-94
2021/04/03 06:50:28;;;;;;;7.32;5.47;;;7.50;78.70;;;;;;6316933;22;19999;-96
2021/04/03 06:53:13;;;;;;;7.55;5.55;;;7.70;78.60;;;;;;6320596;22;19999;-96
2021/04/03 06:55:48;;;;;;;8.43;5.13;;;7.80;75.00;;;;;;6324854;22;20004;-94
2021/04/03 06:58:15;;;;;;;5.88;4.45;;;7.90;76.50;;;;;;6323499;22;20056;-95
2021/04/03 07:00:45;;;;;;;7.22;4.82;;;8.00;76.00;;;;;;6326065;22;20057;-94
2021/04/03 07:03:43;;;;;;;7.90;5.43;;;8.10;74.70;;;;;;6328304;22;19991;-96
2021/04/03 07:06:12;;;;;;;8.95;5.22;;;8.20;73.00;;;;;;6301503;22;20003;-96
2021/04/03 07:08:38;;;;;;;6.38;5.13;;;8.20;72.30;;;;;;6329925;22;19995;-96
2021/04/03 07:11:08;;;;;;;6.80;4.60;;;8.20;72.70;;;;;;6328869;22;20011;-94
2021/04/03 07:13:35;;;;;;;8.02;5.40;;;8.30;73.50;;;;;;6354920;22;19984;-96
2021/04/03 07:16:07;;;;;;;6.30;4.75;;;8.40;72.10;;;;;;6329658;22;20007;-95
2021/04/03 07:18:36;;;;;;;10.57;5.22;;;8.60;72.10;;;;;;6329362;22;20002;-94
2021/04/03 07:21:06;;;;;;;4.78;3.97;;;8.60;71.30;;;;;;6325621;22;20072;-95
2021/04/03 07:23:38;;;;;;;6.60;4.55;;;8.60;70.30;;;;;;6351911;22;20029;-94
2021/04/03 07:26:06;;;;;;;6.43;4.20;;;8.70;69.20;;;;;;6328047;22;20071;-96
2021/04/03 07:28:40;;;;;;;5.10;4.28;;;8.70;69.70;;;;;;6330191;22;19999;-94
2021/04/03 07:31:06;;;;;;;7.90;5.22;;;8.80;69.40;;;;;;6331645;22;20017;-94
2021/04/03 07:33:33;;;;;;;6.97;4.65;;;8.80;67.90;;;;;;6357284;22;20070;-94
2021/04/03 07:36:07;;;;;;;6.20;3.78;;;8.80;68.40;;;;;;6327293;22;20007;-94
2021/04/03 07:38:39;;;;;;;5.38;3.67;;;8.90;67.00;;;;;;6333852;22;20000;-94
2021/04/03 07:43:46;;;;;;;5.13;3.35;;;9.00;66.90;;;;;;6305748;22;20025;-94
2021/04/03 07:46:37;;;;;;;6.63;4.03;;;9.00;65.40;;;;;;6360674;22;20138;-96
2021/04/03 07:49:02;;;;;;;5.57;3.30;;;9.00;63.90;;;;;;6363682;22;20172;-95
2021/04/03 07:51:46;;;;;;;5.63;3.03;;;9.10;64.40;;;;;;6360766;22;20034;-94
2021/04/03 07:54:23;;;;;;;5.72;3.05;;;9.20;65.00;;;;;;6360144;22;20007;-95
2021/04/03 07:56:50;;;;;;;5.57;3.58;;;9.20;63.00;;;;;;6360380;22;20033;-96
2021/04/03 07:59:47;;;;;;;5.18;3.10;;;9.30;63.20;;;;;;6360923;22;20001;-95
2021/04/03 08:02:30;;;;;;;5.00;3.22;;;9.40;59.90;;;;;;6362328;22;20052;-95
2021/04/03 08:05:10;;;;;;;4.88;3.30;;;9.50;61.70;;;;;;6363672;22;20002;-95
2021/04/03 08:07:42;;;;;;;4.25;3.38;;;9.60;61.70;;;;;;6362834;22;20066;-95
2021/04/03 08:10:34;;;;;;;5.55;3.08;;;9.60;61.90;;;;;;6363778;22;20036;-94
2021/04/03 08:13:01;;;;;;;5.22;3.35;;;9.80;60.80;;;;;;6363384;22;19999;-94
2021/04/03 08:15:28;;;;;;;4.68;2.97;;;9.90;61.70;;;;;;6362525;22;20013;-96
2021/04/03 08:17:58;;;;;;;3.10;2.60;;;10.00;59.70;;;;;;6361958;22;20003;-96
2021/04/03 08:20:24;;;;;;;3.42;2.75;;;10.00;59.40;;;;;;6339887;22;20003;-95
2021/04/03 08:23:04;;;;;;;2.97;2.50;;;10.10;61.50;;;;;;6364707;22;20073;-96
2021/04/03 08:25:38;;;;;;;3.03;2.50;;;10.20;56.70;;;;;;6362220;22;20054;-96
2021/04/03 08:30:48;;;;;;;2.50;2.20;;;10.20;55.50;;;;;;6339633;22;20023;-96
2021/04/03 08:33:16;;;;;;;3.45;2.60;;;10.10;56.00;;;;;;6338377;22;20021;-96
2021/04/03 08:35:49;;;;;;;2.20;1.83;;;10.20;57.00;;;;;;6366288;22;19999;-95
2021/04/03 08:38:23;;;;;;;3.83;2.63;;;10.20;53.60;;;;;;6310451;22;20061;-93
2021/04/03 08:40:56;;;;;;;2.88;2.10;;;10.30;52.90;;;;;;6274311;22;20085;-96
2021/04/03 08:43:28;;;;;;;4.63;2.80;;;10.30;54.80;;;;;;6298874;22;20007;-96
2021/04/03 08:46:01;;;;;;;2.83;2.15;;;10.40;53.40;;;;;;6270748;22;20034;-94
2021/04/03 08:48:32;;;;;;;3.65;2.17;;;10.50;54.00;;;;;;6271452;22;19996;-94
2021/04/03 08:51:02;;;;;;;3.58;2.38;;;10.60;55.30;;;;;;6297992;22;20000;-95
2021/04/03 08:53:44;;;;;;;2.78;2.28;;;10.70;54.40;;;;;;6273874;22;19996;-95
2021/04/03 08:56:20;;;;;;;5.28;2.08;;;10.70;52.20;;;;;;6250084;22;20016;-94
2021/04/03 08:58:47;;;;;;;2.55;2.00;;;10.80;53.20;;;;;;6271022;22;20030;-93
2021/04/03 09:01:16;;;;;;;4.43;2.22;;;10.90;52.80;;;;;;6245430;22;20033;-94
2021/04/03 09:03:43;;;;;;;3.10;2.08;;;11.00;52.70;;;;;;6274950;22;19992;-94
2021/04/03 09:06:12;;;;;;;1.85;1.73;;;11.20;54.10;;;;;;6270795;22;20004;-94
2021/04/03 09:08:38;;;;;;;3.53;2.13;;;11.30;50.60;;;;;;6302219;22;20050;-95
2021/04/03 09:11:44;;;;;;;2.42;2.20;;;11.30;50.70;;;;;;6301533;22;20000;-96
2021/04/03 09:14:32;;;;;;;2.42;1.55;;;11.30;48.20;;;;;;6266418;22;20023;-96
2021/04/03 09:17:27;;;;;;;5.10;2.33;;;11.40;50.00;;;;;;6299629;22;20019;-95
2021/04/03 09:20:20;;;;;;;1.88;1.58;;;11.40;45.90;;;;;;6265977;22;20003;-95
2021/04/03 09:22:56;;;;;;;2.85;2.13;;;11.50;46.30;;;;;;6276676;22;20038;-95
2021/04/03 09:25:30;;;;;;;9.40;2.10;;;11.70;48.30;;;;;;6272622;22;20067;-96
2021/04/03 09:28:34;;;;;;;2.50;1.95;;;11.70;45.40;;;;;;6323891;22;20081;-96
2021/04/03 09:31:04;;;;;;;5.18;1.88;;;11.70;45.80;;;;;;6331816;22;20122;-94
2021/04/03 09:33:57;;;;;;;2.03;1.83;;;11.80;48.70;;;;;;6360765;22;19995;-94
2021/04/03 09:36:40;;;;;;;3.57;1.80;;;11.90;46.70;;;;;;6272537;22;20015;-92
2021/04/03 09:39:19;;;;;;;1.88;1.40;;;12.00;47.00;;;;;;6344147;22;20005;-92
2021/04/03 09:41:55;;;;;;;2.83;1.92;;;12.00;45.30;;;;;;6337201;22;20093;-92
2021/04/03 09:44:32;;;;;;;1.50;1.40;;;12.00;44.90;;;;;;6342210;22;20011;-92
2021/04/03 09:47:05;;;;;;;1.95;1.63;;;11.90;45.20;;;;;;6342954;22;20006;-92
2021/04/03 09:49:35;;;;;;;2.90;2.00;;;12.00;46.10;;;;;;6343503;22;19999;-92
2021/04/03 09:52:22;;;;;;;3.35;2.10;;;12.10;46.40;;;;;;6340873;22;20014;-93
2021/04/03 09:55:02;;;;;;;2.15;1.92;;;12.20;43.90;;;;;;6342094;22;20022;-92
2021/04/03 09:57:39;;;;;;;2.47;1.77;;;12.10;43.90;;;;;;6343160;22;20009;-93
2021/04/03 10:00:09;;;;;;;1.83;1.47;;;12.20;44.20;;;;;;6353886;22;19995;-91
2021/04/03 10:02:43;;;;;;;2.85;1.90;;;11.90;42.50;;;;;;6335143;22;20003;-91
2021/04/03 10:05:22;;;;;;;1.60;1.33;;;12.00;44.20;;;;;;6363671;22;19991;-91
2021/04/03 10:07:55;;;;;;;2.47;1.50;;;12.00;43.80;;;;;;6365864;22;19991;-92
2021/04/03 10:10:24;;;;;;;1.83;1.63;;;12.00;44.60;;;;;;6362704;22;20275;-92
2021/04/03 10:13:12;;;;;;;1.80;1.70;;;12.10;45.10;;;;;;6356244;22;20067;-92
2021/04/03 10:15:41;;;;;;;3.90;1.95;;;12.20;41.60;;;;;;6360524;22;20021;-92
2021/04/03 10:18:10;;;;;;;2.42;1.60;;;12.30;43.60;;;;;;6348952;22;20062;-91
2021/04/03 10:20:36;;;;;;;1.90;1.70;;;12.20;42.90;;;;;;6347950;22;20024;-93
2021/04/03 10:26:47;;;;;;;2.97;1.65;;;12.30;39.50;;;;;;6349276;22;20017;-92
2021/04/03 10:29:18;;;;;;;2.50;1.55;;;12.30;42.00;;;;;;6319532;22;20024;-93
2021/04/03 10:32:03;;;;;;;1.15;1.08;;;12.20;40.90;;;;;;6341649;22;20041;-93
2021/04/03 10:34:39;;;;;;;3.00;1.58;;;12.20;41.60;;;;;;6342525;22;20021;-92
2021/04/03 10:37:06;;;;;;;2.40;1.85;;;12.40;42.80;;;;;;6341602;22;19995;-92
2021/04/03 10:40:18;;;;;;;1.88;1.70;;;12.40;41.20;;;;;;6341949;22;20036;-93
2021/04/03 10:42:46;;;;;;;3.03;1.83;;;12.40;39.20;;;;;;6332563;22;20085;-93
2021/04/03 10:45:16;;;;;;;2.15;1.88;;;12.40;41.30;;;;;;6340822;22;20006;-91
2021/04/03 10:47:56;;;;;;;5.72;2.10;;;12.40;41.20;;;;;;6293944;22;20014;-93
2021/04/03 10:50:35;;;;;;;2.22;1.67;;;12.30;41.40;;;;;;6340382;22;20011;-92
2021/04/03 10:53:34;;;;;;;1.30;1.20;;;12.40;41.30;;;;;;6341806;22;20430;-92
2021/04/03 10:56:04;;;;;;;2.78;2.05;;;12.40;39.20;;;;;;6338448;22;20418;-93
2021/04/03 10:58:59;;;;;;;1.85;1.60;;;12.40;39.60;;;;;;6341266;22;20010;-93
2021/04/03 11:01:30;;;;;;;3.17;2.05;;;12.40;39.90;;;;;;6342045;22;20375;-93
2021/04/03 11:03:58;;;;;;;2.47;1.95;;;12.40;40.50;;;;;;6340163;22;20038;-92
2021/04/03 11:06:31;;;;;;;2.10;1.75;;;12.50;41.90;;;;;;6339269;22;20036;-93
2021/04/03 11:09:02;;;;;;;2.63;1.77;;;12.70;41.20;;;;;;6338642;22;20011;-92
2021/04/03 11:15:24;;;;;;;2.33;1.65;;;12.80;39.70;;;;;;6338999;22;20410;-93
2021/04/03 11:17:59;;;;;;;3.50;1.92;;;12.70;37.30;;;;;;6339442;22;20089;-93
2021/04/03 11:20:58;;;;;;;2.20;1.63;;;12.70;40.00;;;;;;6338353;22;20021;-92
2021/04/03 11:23:28;;;;;;;1.67;1.30;;;12.70;37.70;;;;;;6326882;22;20013;-93
2021/04/03 11:26:00;;;;;;;5.72;2.00;;;12.70;38.10;;;;;;6340515;22;19999;-93
2021/04/03 11:28:42;;;;;;;2.58;1.90;;;12.80;39.00;;;;;;6334062;22;20333;-91
2021/04/03 11:31:14;;;;;;;3.22;2.13;;;12.80;38.00;;;;;;6341186;22;20018;-92
2021/04/03 11:33:41;;;;;;;2.58;1.90;;;12.80;38.10;;;;;;6343781;22;20010;-92
2021/04/03 11:36:14;;;;;;;3.10;1.77;;;12.80;39.00;;;;;;6347927;22;20070;-93
2021/04/03 11:39:13;;;;;;;2.53;2.05;;;12.90;38.90;;;;;;6358633;22;20002;-93
2021/04/03 11:41:45;;;;;;;3.50;1.98;;;13.00;37.00;;;;;;6283826;22;20006;-93
2021/04/03 11:44:25;;;;;;;1.75;1.65;;;13.10;38.10;;;;;;6339475;22;19999;-92
2021/04/03 11:46:57;;;;;;;2.58;1.60;;;13.10;37.00;;;;;;6362466;22;20006;-92
2021/04/03 11:49:26;;;;;;;3.45;1.33;;;13.20;37.20;;;;;;6350842;22;20014;-90
2021/04/03 12:35:32;;;;;;;;;;;;;;;;;;;;;
2021/04/03 12:38:38;;;;;;;2.35;2.15;;;13.70;36.30;;;;;;5876627;24;20101;-93
2021/04/03 13:38:58;;;;;;;2.30;1.92;;;14.90;35.70;;;;;;6262579;22;20033;-91
2021/04/03 13:41:40;;;;;;;;;;;;;;;;;;;;;
2021/04/03 13:44:15;;;;;;;2.72;1.80;;;15.80;36.40;;;;;;6343488;22;20094;-92
2021/04/03 13:46:48;;;;;;;2.72;2.13;;;15.90;36.20;;;;;;6315212;22;20013;-91
2021/04/03 13:49:28;;;;;;;1.77;1.48;;;15.80;34.10;;;;;;6339847;22;20003;-91
2021/04/03 13:51:58;;;;;;;2.10;1.90;;;15.50;35.00;;;;;;6341918;22;20051;-93
2021/04/03 13:54:30;;;;;;;1.83;1.63;;;15.50;36.30;;;;;;6343499;22;20011;-90
2021/04/03 13:57:11;;;;;;;2.42;2.00;;;16.00;37.20;;;;;;6339780;22;20064;-92
2021/04/03 13:59:37;;;;;;;2.60;1.90;;;16.90;36.20;;;;;;6347919;22;19995;-90
2021/04/03 14:02:15;;;;;;;2.40;2.15;;;17.80;36.40;;;;;;6318270;22;20086;-90
2021/04/03 14:05:13;;;;;;;2.55;2.17;;;18.50;35.20;;;;;;6344618;22;20010;-92
2021/04/03 14:07:42;;;;;;;2.63;2.00;;;18.80;34.20;;;;;;6356245;22;20059;-90
2021/04/03 14:21:40;;;;;;;;;;;;;;;;;;;;;
2021/04/03 14:24:08;;;;;;;2.58;1.73;;;21.20;30.00;;;;;;6158083;23;20073;-91
2021/04/03 14:26:35;;;;;;;1.48;1.38;;;20.60;30.20;;;;;;6185348;23;20005;-91
2021/04/03 14:29:02;;;;;;;1.73;1.58;;;20.10;31.50;;;;;;6268428;22;20058;-95
2021/04/03 14:31:31;;;;;;;1.42;1.33;;;20.00;32.20;;;;;;6308932;22;20038;-90
2021/04/03 14:34:00;;;;;;;2.42;1.65;;;20.10;31.50;;;;;;6308555;22;20296;-90
2021/04/03 14:36:26;;;;;;;2.20;2.00;;;20.30;31.80;;;;;;6309578;22;20011;-89
2021/04/03 14:38:52;;;;;;;3.03;1.90;;;20.20;30.40;;;;;;6307862;22;20028;-88
2021/04/03 14:41:18;;;;;;;3.50;2.40;;;19.90;31.10;;;;;;6308807;22;20008;-91
2021/04/03 14:43:44;;;;;;;2.67;2.10;;;20.00;31.20;;;;;;6282173;22;20081;-91
2021/04/03 14:46:12;;;;;;;2.42;1.95;;;20.30;31.30;;;;;;6311639;22;19995;-90
2021/04/03 14:48:38;;;;;;;2.17;2.00;;;20.60;29.90;;;;;;6308152;22;20003;-91
2021/04/03 14:51:04;;;;;;;2.38;2.15;;;20.70;30.00;;;;;;6283814;22;20003;-90
2021/04/03 14:53:30;;;;;;;5.00;1.73;;;20.70;30.20;;;;;;6310213;22;20118;-91
2021/04/03 14:55:56;;;;;;;1.67;1.58;;;20.80;30.30;;;;;;6313793;22;20007;-90
2021/04/03 14:58:30;;;;;;;1.48;1.38;;;21.10;29.80;;;;;;6285689;22;20304;-90
2021/04/03 15:00:56;;;;;;;1.95;1.75;;;21.20;30.30;;;;;;6319240;22;20078;-90
2021/04/03 15:03:22;;;;;;;2.17;1.95;;;21.40;29.80;;;;;;6331832;22;19990;-92
2021/04/03 15:05:54;;;;;;;1.83;1.70;;;21.40;29.80;;;;;;6331116;22;20022;-91
2021/04/03 15:08:20;;;;;;;1.90;1.80;;;21.30;29.20;;;;;;6331548;22;19987;-92
2021/04/03 15:10:46;;;;;;;2.42;1.73;;;21.00;29.20;;;;;;6329932;22;20059;-93
2021/04/03 15:13:12;;;;;;;1.70;1.60;;;20.70;29.50;;;;;;6326382;22;20039;-92
2021/04/03 15:15:40;;;;;;;1.83;1.70;;;20.70;29.70;;;;;;6312446;22;20007;-91
2021/04/03 15:18:06;;;;;;;1.83;1.33;;;20.50;29.30;;;;;;6312868;22;20414;-92
2021/04/03 15:20:32;;;;;;;1.50;1.40;;;20.00;29.50;;;;;;6311929;22;20025;-92
2021/04/03 15:23:04;;;;;;;1.60;1.50;;;19.50;29.60;;;;;;6310217;22;20426;-92